Time;durP1;ratioP1;P1;durP2;ratioP2;P2;SDS_P1;SDS_P2;PMS_P1;PMS_P2;Temp;Humidity;BMP_temperature;BMP_pressure;BME280_temperature;BME280_humidity;BME280_pressure;Samples;Min_cycle;Max_cycle;Signal;HPM_P1;HPM_P2
2022/04/26 03:36:42;;;;;;;15.55;6.32;;;2.30;67.00;;;;;;4086283;28;20035;-76
2022/04/26 03:38:47;;;;;;;11.95;6.63;;;2.30;67.10;;;;;;4098229;28;20388;-77
2022/04/26 03:40:48;;;;;;;11.00;6.10;;;2.30;67.10;;;;;;4080147;28;20778;-76
2022/04/26 03:42:49;;;;;;;11.73;6.45;;;2.30;67.20;;;;;;4088965;28;20055;-76
2022/04/26 03:44:50;;;;;;;16.90;6.95;;;2.30;67.20;;;;;;4090551;28;20106;-77
2022/04/26 03:46:50;;;;;;;13.60;6.93;;;2.30;67.30;;;;;;4088662;28;20050;-77
2022/04/26 03:48:51;;;;;;;15.32;7.25;;;2.30;67.30;;;;;;4109435;28;20036;-77
2022/04/26 03:50:52;;;;;;;14.80;8.05;;;2.30;67.20;;;;;;4096029;28;20572;-77
2022/04/26 03:52:53;;;;;;;14.15;7.05;;;2.20;67.10;;;;;;4093227;28;20039;-77
2022/04/26 03:54:54;;;;;;;17.00;7.80;;;2.20;67.00;;;;;;4094867;28;20053;-77
2022/04/26 03:56:55;;;;;;;16.10;7.88;;;2.20;67.00;;;;;;4095122;28;20095;-77
2022/04/26 03:58:55;;;;;;;16.95;7.88;;;2.20;67.10;;;;;;4095200;28;20031;-77
2022/04/26 04:00:56;;;;;;;20.00;7.65;;;2.20;67.30;;;;;;4096065;28;20027;-77
2022/04/26 04:02:57;;;;;;;14.88;7.57;;;2.20;67.40;;;;;;4097812;28;20102;-77
2022/04/26 04:04:57;;;;;;;15.10;7.35;;;2.30;67.50;;;;;;4107233;28;20023;-76
2022/04/26 04:07:00;;;;;;;16.23;7.50;;;2.10;67.50;;;;;;4102101;28;20038;-76
2022/04/26 04:09:00;;;;;;;16.40;8.32;;;2.10;67.50;;;;;;4095688;28;20745;-76
2022/04/26 04:11:01;;;;;;;15.55;7.80;;;2.10;67.50;;;;;;4091121;28;20043;-77
2022/04/26 04:13:02;;;;;;;15.98;7.28;;;2.10;67.60;;;;;;4094788;28;20031;-77
2022/04/26 04:15:02;;;;;;;18.10;7.70;;;2.10;67.60;;;;;;4093910;28;20066;-77
2022/04/26 04:17:03;;;;;;;18.35;8.20;;;2.10;67.70;;;;;;4093342;28;20080;-77
2022/04/26 04:19:20;;;;;;;19.02;8.43;;;2.10;67.80;;;;;;4091888;28;20050;-77
2022/04/26 04:21:21;;;;;;;15.25;7.53;;;2.10;68.00;;;;;;4092574;28;20074;-77
2022/04/26 04:23:22;;;;;;;27.55;8.57;;;2.00;68.00;;;;;;4084614;28;20036;-76
2022/04/26 04:25:23;;;;;;;14.65;7.78;;;2.10;68.10;;;;;;4089408;28;20040;-77
2022/04/26 04:27:24;;;;;;;20.20;7.80;;;2.10;68.50;;;;;;4089374;28;20419;-77
2022/04/26 04:29:24;;;;;;;18.88;8.35;;;2.10;68.80;;;;;;4100489;28;20420;-77
2022/04/26 04:31:25;;;;;;;15.05;8.40;;;2.20;69.20;;;;;;4088988;28;20042;-76
2022/04/26 04:33:26;;;;;;;14.25;7.78;;;2.20;69.60;;;;;;4091373;28;20676;-77
2022/04/26 04:35:26;;;;;;;24.92;7.95;;;2.20;70.00;;;;;;4100461;28;20070;-78
2022/04/26 04:37:27;;;;;;;13.35;7.30;;;2.30;70.50;;;;;;4093449;28;20027;-77
2022/04/26 04:39:28;;;;;;;22.05;8.63;;;2.30;70.90;;;;;;4097415;28;20113;-78
2022/04/26 04:41:30;;;;;;;16.10;7.97;;;2.40;71.40;;;;;;4107975;28;20391;-78
2022/04/26 04:43:32;;;;;;;15.52;6.50;;;2.40;71.70;;;;;;4093650;28;20247;-77
2022/04/26 04:45:32;;;;;;;15.82;7.03;;;2.50;71.90;;;;;;4093397;28;20023;-77
2022/04/26 04:47:33;;;;;;;15.38;7.57;;;2.70;72.10;;;;;;4087428;28;20039;-77
2022/04/26 04:49:34;;;;;;;18.02;7.72;;;2.70;72.50;;;;;;4093171;28;21305;-77
2022/04/26 04:51:34;;;;;;;14.80;6.60;;;2.80;72.50;;;;;;4088056;28;20054;-78
2022/04/26 04:53:35;;;;;;;14.80;6.97;;;2.80;72.10;;;;;;4097374;28;20035;-78
2022/04/26 04:55:38;;;;;;;15.30;7.32;;;2.90;72.00;;;;;;4094240;28;20118;-77
2022/04/26 04:57:38;;;;;;;14.32;6.25;;;3.00;72.00;;;;;;4089349;28;20800;-77
2022/04/26 04:59:39;;;;;;;16.98;7.15;;;3.00;72.10;;;;;;4087764;28;20031;-78
2022/04/26 05:01:40;;;;;;;19.30;6.95;;;3.10;72.30;;;;;;4104854;28;20066;-77
2022/04/26 05:03:42;;;;;;;16.58;6.38;;;3.20;72.10;;;;;;4088472;28;20074;-82
2022/04/26 05:05:43;;;;;;;32.75;13.82;;;3.20;72.00;;;;;;4089548;28;20031;-85
2022/04/26 05:07:43;;;;;;;12.55;6.57;;;3.30;72.00;;;;;;4113443;28;20042;-85
2022/04/26 05:09:44;;;;;;;13.40;6.07;;;3.30;72.00;;;;;;4090373;28;20086;-87
2022/04/26 05:11:45;;;;;;;13.23;6.05;;;3.40;72.10;;;;;;4098477;28;20035;-85
2022/04/26 05:13:45;;;;;;;13.48;6.55;;;3.40;72.00;;;;;;4088574;28;20043;-86
2022/04/26 05:15:46;;;;;;;12.52;6.65;;;3.40;72.80;;;;;;4091077;28;20035;-84
2022/04/26 05:17:47;;;;;;;14.73;6.82;;;3.50;72.90;;;;;;4094324;28;20106;-85
2022/04/26 05:19:48;;;;;;;15.75;6.90;;;3.60;74.00;;;;;;4095045;28;20488;-86
2022/04/26 05:21:48;;;;;;;12.40;6.13;;;3.70;73.50;;;;;;4101243;28;20157;-85
2022/04/26 05:26:09;;;;;;;11.80;6.60;;;3.80;72.90;;;;;;4101170;28;20561;-85
2022/04/26 05:28:09;;;;;;;14.40;6.70;;;3.90;72.70;;;;;;4099735;28;20034;-85
2022/04/26 05:30:10;;;;;;;13.45;6.47;;;4.00;72.50;;;;;;4111427;28;20126;-85
2022/04/26 05:32:11;;;;;;;14.18;7.15;;;4.00;72.30;;;;;;4091557;28;20031;-86
2022/04/26 05:34:11;;;;;;;10.95;6.38;;;4.10;72.50;;;;;;4099223;28;20035;-85
2022/04/26 05:36:12;;;;;;;12.13;6.63;;;4.10;72.30;;;;;;4097481;28;20623;-85
2022/04/26 05:38:12;;;;;;;12.75;6.43;;;4.20;73.20;;;;;;4096805;28;20150;-86
2022/04/26 05:40:13;;;;;;;16.35;6.28;;;4.30;72.50;;;;;;4108919;28;20121;-84
2022/04/26 05:42:14;;;;;;;10.60;6.47;;;4.40;72.50;;;;;;4096188;28;20087;-85
2022/04/26 05:44:14;;;;;;;15.27;6.88;;;4.40;72.50;;;;;;4118281;28;20022;-86
2022/04/26 05:46:15;;;;;;;15.07;6.63;;;4.40;72.70;;;;;;4108496;28;20050;-86
2022/04/26 05:48:16;;;;;;;12.02;6.47;;;4.50;72.80;;;;;;4117532;28;20034;-86
2022/04/26 05:50:16;;;;;;;19.95;7.18;;;4.60;72.70;;;;;;4105932;28;20463;-85
2022/04/26 05:52:17;;;;;;;12.27;6.72;;;4.70;72.90;;;;;;4094099;28;20062;-87
2022/04/26 05:54:17;;;;;;;13.98;6.63;;;4.80;72.80;;;;;;4108422;28;20403;-85
2022/04/26 05:56:18;;;;;;;20.63;7.80;;;4.80;72.60;;;;;;4105452;28;20031;-86
2022/04/26 05:58:20;;;;;;;13.65;7.32;;;4.90;72.70;;;;;;4099455;28;20059;-85
2022/04/26 06:00:20;;;;;;;13.43;6.95;;;5.00;72.50;;;;;;4106923;28;20079;-86
2022/04/26 06:02:21;;;;;;;21.98;7.35;;;5.10;72.30;;;;;;4106071;28;20062;-85
2022/04/26 06:04:23;;;;;;;21.02;7.30;;;5.10;72.10;;;;;;4097312;28;20036;-86
2022/04/26 06:06:25;;;;;;;14.60;7.15;;;5.20;71.90;;;;;;4103996;28;20094;-86
2022/04/26 06:08:26;;;;;;;15.90;7.13;;;5.20;71.80;;;;;;4095228;28;20063;-86
2022/04/26 06:10:28;;;;;;;16.30;7.32;;;5.30;71.70;;;;;;4102594;28;20043;-86
2022/04/26 06:12:29;;;;;;;14.07;7.40;;;5.30;71.60;;;;;;4123001;28;20114;-86
2022/04/26 06:14:29;;;;;;;14.50;7.13;;;5.40;71.70;;;;;;4106190;28;20035;-86
2022/04/26 06:16:30;;;;;;;13.50;6.63;;;5.50;71.70;;;;;;4103438;29;20050;-85
2022/04/26 06:18:31;;;;;;;14.32;7.25;;;5.40;71.40;;;;;;4117358;28;20506;-86
2022/04/26 06:20:32;;;;;;;12.48;6.72;;;5.60;71.40;;;;;;4102174;28;20023;-86
2022/04/26 06:22:33;;;;;;;10.95;6.55;;;5.60;71.40;;;;;;4101178;29;20051;-86
2022/04/26 06:24:34;;;;;;;17.17;6.38;;;5.60;71.40;;;;;;4093135;28;20035;-85
2022/04/26 06:26:34;;;;;;;13.82;6.85;;;5.60;71.40;;;;;;4104332;28;20090;-85
2022/04/26 06:28:35;;;;;;;11.85;6.70;;;5.60;71.00;;;;;;4117056;28;20441;-85
2022/04/26 06:30:39;;;;;;;11.88;6.00;;;5.70;70.90;;;;;;4102791;28;20073;-85
2022/04/26 06:32:42;;;;;;;12.20;5.50;;;5.70;70.80;;;;;;4103241;28;20479;-86
2022/04/26 06:34:43;;;;;;;10.88;5.60;;;5.70;70.60;;;;;;4102695;28;20039;-85
2022/04/26 06:36:44;;;;;;;8.20;4.82;;;5.80;70.50;;;;;;4100419;28;20070;-86
2022/04/26 06:38:44;;;;;;;9.68;5.53;;;5.80;70.30;;;;;;4103113;28;20046;-86
2022/04/26 06:40:48;;;;;;;10.55;4.93;;;5.90;70.00;;;;;;4117930;28;20022;-85
2022/04/26 06:42:49;;;;;;;10.02;4.55;;;5.80;69.60;;;;;;4107540;28;20034;-85
2022/04/26 06:44:49;;;;;;;6.18;4.07;;;5.80;69.30;;;;;;4109620;28;20496;-85
2022/04/26 06:46:50;;;;;;;6.45;3.70;;;5.80;68.90;;;;;;4100074;28;20091;-85
2022/04/26 06:48:52;;;;;;;8.02;4.25;;;5.80;69.00;;;;;;4103828;28;20030;-85
2022/04/26 06:50:55;;;;;;;8.43;3.85;;;5.80;69.20;;;;;;4105402;28;20111;-85
2022/04/26 06:52:55;;;;;;;7.00;3.95;;;5.90;68.90;;;;;;4102604;28;20042;-85
2022/04/26 06:54:56;;;;;;;6.85;3.65;;;5.90;68.90;;;;;;4103991;28;20027;-86
2022/04/26 06:56:57;;;;;;;5.75;3.50;;;5.90;68.80;;;;;;4099776;28;20019;-86
2022/04/26 06:58:57;;;;;;;5.65;3.58;;;6.00;68.80;;;;;;4102871;28;20049;-86
2022/04/26 07:00:59;;;;;;;10.57;4.18;;;6.00;68.80;;;;;;4102171;29;20023;-86
2022/04/26 07:03:00;;;;;;;6.55;3.60;;;6.10;68.90;;;;;;4111931;28;20039;-85
2022/04/26 07:05:01;;;;;;;7.32;3.58;;;6.10;68.70;;;;;;4102623;28;20027;-85
2022/04/26 07:07:02;;;;;;;9.02;3.67;;;6.10;68.70;;;;;;4099297;28;20134;-86
2022/04/26 07:09:03;;;;;;;5.55;3.55;;;6.20;68.70;;;;;;4092382;28;20644;-86
2022/04/26 07:11:04;;;;;;;6.07;3.78;;;6.20;68.70;;;;;;4100003;28;20058;-86
2022/04/26 07:13:04;;;;;;;5.63;3.45;;;6.40;68.90;;;;;;4101560;28;20054;-86
2022/04/26 07:15:05;;;;;;;5.95;3.65;;;6.30;68.70;;;;;;4103590;29;20023;-81
2022/04/26 07:17:06;;;;;;;5.97;3.50;;;6.40;68.60;;;;;;4101323;28;20106;-86
2022/04/26 07:19:07;;;;;;;12.23;3.90;;;6.40;69.10;;;;;;4115813;28;20023;-85
2022/04/26 07:21:07;;;;;;;6.32;3.63;;;6.60;68.50;;;;;;4104398;28;20027;-85
2022/04/26 07:23:08;;;;;;;5.78;4.03;;;6.60;68.10;;;;;;4102941;28;20039;-84
2022/04/26 07:25:12;;;;;;;8.65;3.80;;;6.60;68.00;;;;;;4122040;28;20022;-86
2022/04/26 07:27:13;;;;;;;5.50;3.72;;;6.60;67.80;;;;;;4112392;28;20042;-85
2022/04/26 07:29:15;;;;;;;5.45;3.85;;;6.80;67.90;;;;;;4103713;28;20471;-85
2022/04/26 07:31:16;;;;;;;4.78;2.95;;;6.80;68.00;;;;;;4104043;28;20019;-85
2022/04/26 07:35:35;;;;;;;7.20;3.80;;;6.90;68.00;;;;;;4107670;28;20357;-85
2022/04/26 07:37:40;;;;;;;6.10;3.90;;;7.00;67.30;;;;;;4116072;28;20119;-85
2022/04/26 07:39:42;;;;;;;5.65;3.97;;;7.10;67.10;;;;;;4103783;28;20441;-85
2022/04/26 07:41:44;;;;;;;6.15;3.60;;;7.10;66.90;;;;;;4104311;28;20219;-85
2022/04/26 07:43:45;;;;;;;5.40;3.53;;;7.10;66.80;;;;;;4099858;28;20037;-85
2022/04/26 07:45:46;;;;;;;8.60;3.92;;;7.20;66.90;;;;;;4097355;28;20087;-84
2022/04/26 07:47:47;;;;;;;10.00;4.05;;;7.40;67.00;;;;;;4097515;28;20039;-85
2022/04/26 07:49:48;;;;;;;6.18;3.55;;;7.40;66.90;;;;;;4103955;28;20035;-85
2022/04/26 07:51:49;;;;;;;5.75;3.92;;;7.40;66.70;;;;;;4103351;28;20047;-85
2022/04/26 07:53:50;;;;;;;6.47;3.97;;;7.60;66.80;;;;;;4100711;28;20031;-85
2022/04/26 07:55:50;;;;;;;5.53;3.53;;;7.60;66.70;;;;;;4109881;28;20036;-84
2022/04/26 07:57:51;;;;;;;9.90;3.92;;;7.70;67.40;;;;;;4117691;28;20027;-85
2022/04/26 07:59:51;;;;;;;6.93;4.05;;;7.80;66.20;;;;;;4102697;28;20108;-85
2022/04/26 08:01:52;;;;;;;6.30;4.00;;;7.80;65.80;;;;;;4101804;28;20169;-85
2022/04/26 08:03:53;;;;;;;5.63;3.78;;;7.90;65.80;;;;;;4102717;28;20050;-85
2022/04/26 08:05:54;;;;;;;6.68;3.67;;;7.90;65.60;;;;;;4102940;28;20090;-86
2022/04/26 08:07:54;;;;;;;5.90;3.80;;;8.00;65.60;;;;;;4103245;29;20038;-86
2022/04/26 08:09:58;;;;;;;6.68;4.22;;;8.10;65.40;;;;;;4102262;29;20035;-85
2022/04/26 08:11:58;;;;;;;8.05;4.05;;;8.20;65.50;;;;;;4102901;28;20043;-85
2022/04/26 08:14:00;;;;;;;5.40;3.80;;;8.20;65.10;;;;;;4103372;28;20034;-85
2022/04/26 08:16:00;;;;;;;5.55;3.78;;;8.20;64.60;;;;;;4101419;28;20035;-85
2022/04/26 08:18:01;;;;;;;8.70;4.13;;;8.30;64.40;;;;;;4102348;28;20079;-84
2022/04/26 08:20:03;;;;;;;9.07;3.97;;;8.40;64.70;;;;;;4102140;29;20066;-85
2022/04/26 08:22:04;;;;;;;5.93;3.53;;;8.40;64.90;;;;;;4101963;28;20038;-85
2022/04/26 08:28:45;;;;;;;7.80;4.38;;;8.60;64.20;;;;;;4100839;28;20038;-85
2022/04/26 08:30:46;;;;;;;8.15;4.28;;;8.70;64.20;;;;;;4092492;28;20038;-85
2022/04/26 08:32:48;;;;;;;6.70;3.92;;;8.70;63.80;;;;;;4103113;28;20534;-85
2022/04/26 08:34:49;;;;;;;9.13;4.38;;;8.80;64.00;;;;;;4116798;28;20031;-85
2022/04/26 08:36:50;;;;;;;5.15;3.80;;;9.00;64.00;;;;;;4117276;28;20396;-85
2022/04/26 08:38:50;;;;;;;10.15;3.85;;;9.00;64.10;;;;;;4092572;28;20118;-85
2022/04/26 08:40:51;;;;;;;8.90;4.30;;;9.10;64.80;;;;;;4114893;28;20125;-86
2022/04/26 08:42:52;;;;;;;7.97;4.30;;;9.20;63.40;;;;;;4094390;28;20035;-85
2022/04/26 08:44:52;;;;;;;5.95;4.13;;;9.20;63.00;;;;;;4096306;28;20023;-85
2022/04/26 08:51:44;;;;;;;7.57;4.03;;;9.50;62.60;;;;;;4097198;29;20039;-87
2022/04/26 08:53:44;;;;;;;7.78;3.90;;;9.60;62.90;;;;;;4098096;28;20139;-85
2022/04/26 08:55:49;;;;;;;10.02;4.22;;;9.60;62.70;;;;;;4098551;29;20023;-85
2022/04/26 08:57:51;;;;;;;8.77;3.67;;;9.70;62.80;;;;;;4098838;28;20027;-86
2022/04/26 08:59:53;;;;;;;9.65;4.18;;;9.90;62.40;;;;;;4097947;28;20032;-85
2022/04/26 09:02:18;;;;;;;6.07;4.00;;;9.90;61.70;;;;;;4098474;29;20066;-85
2022/04/26 09:04:18;;;;;;;9.30;4.70;;;10.00;61.60;;;;;;4111447;28;20063;-85
2022/04/26 09:06:21;;;;;;;13.55;4.72;;;10.10;61.10;;;;;;4091619;28;20038;-85
2022/04/26 09:08:22;;;;;;;8.93;4.03;;;10.10;61.10;;;;;;4111746;28;20569;-86
2022/04/26 09:10:23;;;;;;;6.78;3.83;;;10.20;60.80;;;;;;4089908;28;20044;-86
2022/04/26 09:12:23;;;;;;;7.18;4.00;;;10.30;60.20;;;;;;4109107;28;20039;-86
2022/04/26 09:14:36;;;;;;;8.82;4.35;;;10.30;60.30;;;;;;4094769;28;20110;-86
2022/04/26 09:16:37;;;;;;;8.43;4.27;;;10.40;60.40;;;;;;4096311;28;20031;-85
2022/04/26 09:18:38;;;;;;;7.45;4.15;;;10.50;60.50;;;;;;4093707;28;20046;-85
2022/04/26 09:20:38;;;;;;;9.07;3.72;;;10.60;60.60;;;;;;4093250;28;20105;-86
2022/04/26 09:22:39;;;;;;;6.47;3.88;;;10.70;60.50;;;;;;4095236;28;20038;-85
2022/04/26 09:24:55;;;;;;;13.13;4.20;;;10.70;60.10;;;;;;4096781;28;20046;-86
2022/04/26 09:26:56;;;;;;;8.40;4.13;;;10.80;59.60;;;;;;4099701;28;20363;-86
2022/04/26 09:28:58;;;;;;;8.80;4.20;;;10.90;59.50;;;;;;4115185;28;20026;-84
2022/04/26 09:30:59;;;;;;;7.97;3.97;;;10.90;59.20;;;;;;4097920;28;20042;-86
2022/04/26 09:33:00;;;;;;;8.00;4.03;;;11.00;59.30;;;;;;4088692;28;20654;-85
2022/04/26 09:35:16;;;;;;;11.40;3.88;;;11.10;59.00;;;;;;4097742;28;20134;-86
2022/04/26 09:37:17;;;;;;;7.28;4.07;;;11.20;58.80;;;;;;4109248;28;20121;-86
2022/04/26 09:39:19;;;;;;;7.05;4.05;;;11.30;58.70;;;;;;4096739;28;20823;-85
2022/04/26 09:41:20;;;;;;;9.40;3.57;;;11.30;58.00;;;;;;4114327;28;20035;-86
2022/04/26 09:43:21;;;;;;;11.07;4.10;;;11.40;58.10;;;;;;4112320;28;20023;-86
2022/04/26 09:45:21;;;;;;;7.80;3.78;;;11.50;56.80;;;;;;4097241;28;20062;-86
2022/04/26 09:47:43;;;;;;;8.60;3.83;;;11.60;57.40;;;;;;4111743;28;20034;-86
2022/04/26 09:49:44;;;;;;;9.10;3.85;;;11.60;57.50;;;;;;4086289;28;20513;-86
2022/04/26 09:51:46;;;;;;;11.65;4.30;;;11.70;57.50;;;;;;4093317;28;20110;-86
2022/04/26 09:53:47;;;;;;;7.45;3.60;;;11.70;57.00;;;;;;4106122;28;20436;-86
2022/04/26 09:55:48;;;;;;;12.82;4.22;;;11.80;57.30;;;;;;4113216;28;20027;-86
2022/04/26 09:57:51;;;;;;;9.95;3.88;;;11.90;56.90;;;;;;4113098;28;20740;-86
2022/04/26 09:59:53;;;;;;;9.80;4.00;;;12.00;57.00;;;;;;4097533;28;20721;-86
2022/04/26 10:01:58;;;;;;;9.73;4.18;;;12.00;56.80;;;;;;4110394;28;20034;-85
2022/04/26 10:04:02;;;;;;;16.30;3.78;;;12.10;56.30;;;;;;4093873;28;20058;-86
2022/04/26 10:06:05;;;;;;;6.75;3.30;;;12.20;55.40;;;;;;4097293;28;20197;-87
2022/04/26 10:08:07;;;;;;;9.93;3.40;;;12.30;55.30;;;;;;4099344;28;20027;-86
2022/04/26 10:10:09;;;;;;;9.13;3.72;;;12.30;54.60;;;;;;4095850;28;20555;-87
2022/04/26 10:12:10;;;;;;;9.05;3.60;;;12.30;54.00;;;;;;4095021;28;20031;-87
2022/04/26 10:14:12;;;;;;;7.03;3.08;;;12.40;53.80;;;;;;4097227;28;20082;-86
2022/04/26 10:16:19;;;;;;;7.25;3.08;;;12.50;53.40;;;;;;4097878;28;20035;-86
2022/04/26 10:18:47;;;;;;;9.85;3.97;;;12.60;53.80;;;;;;4095671;28;20046;-86
2022/04/26 10:20:47;;;;;;;10.30;3.85;;;12.60;52.70;;;;;;4099820;28;20585;-86
2022/04/26 10:22:57;;;;;;;10.18;3.70;;;12.70;52.20;;;;;;4099322;28;20031;-87
2022/04/26 10:25:12;;;;;;;10.60;3.70;;;12.80;51.60;;;;;;4097252;28;20065;-87
2022/04/26 10:27:23;;;;;;;11.25;3.92;;;12.80;51.70;;;;;;4101815;28;20174;-86
2022/04/26 10:29:25;;;;;;;8.25;3.33;;;12.90;52.10;;;;;;4097249;28;20106;-85
2022/04/26 10:31:35;;;;;;;8.98;3.10;;;12.90;51.20;;;;;;4097064;29;20019;-86
2022/04/26 10:33:38;;;;;;;10.43;3.70;;;13.00;50.30;;;;;;4083989;28;20118;-87
2022/04/26 10:35:39;;;;;;;6.78;3.28;;;13.10;50.10;;;;;;4107773;28;20751;-86
2022/04/26 10:37:39;;;;;;;6.50;3.10;;;13.00;49.60;;;;;;4096103;28;20100;-86
2022/04/26 10:39:51;;;;;;;11.80;3.38;;;13.10;50.40;;;;;;4096093;28;20377;-86
2022/04/26 10:41:53;;;;;;;5.80;3.30;;;13.10;50.50;;;;;;4096153;28;20019;-86
2022/04/26 10:44:12;;;;;;;6.38;3.08;;;13.10;50.40;;;;;;4095700;28;20088;-86
2022/04/26 10:46:15;;;;;;;10.48;2.78;;;13.10;49.50;;;;;;4107343;28;20035;-87
2022/04/26 10:48:25;;;;;;;8.30;3.25;;;13.20;50.00;;;;;;4111713;28;20057;-87
2022/04/26 10:50:32;;;;;;;11.15;2.90;;;13.20;49.30;;;;;;4109854;28;20038;-86
2022/04/26 10:52:38;;;;;;;8.60;3.42;;;13.20;49.10;;;;;;4095019;29;20039;-86
2022/04/26 10:56:48;;;;;;;6.65;2.83;;;13.30;47.60;;;;;;4096121;28;20698;-86
2022/04/26 10:58:55;;;;;;;10.02;3.40;;;13.30;47.80;;;;;;4096791;28;20043;-86
2022/04/26 11:00:55;;;;;;;9.00;3.47;;;13.40;47.90;;;;;;4116422;28;20462;-85
2022/04/26 11:03:02;;;;;;;7.90;3.25;;;13.40;48.60;;;;;;4104502;28;20043;-86
2022/04/26 11:05:15;;;;;;;10.13;3.00;;;13.40;47.80;;;;;;4101987;28;20051;-86
2022/04/26 11:07:18;;;;;;;6.32;3.08;;;13.40;47.20;;;;;;4081279;29;20035;-87
2022/04/26 11:09:18;;;;;;;9.33;2.60;;;13.40;47.40;;;;;;4065601;29;20040;-86
2022/04/26 11:11:19;;;;;;;5.88;2.97;;;13.40;47.70;;;;;;4106011;28;20307;-87
2022/04/26 11:13:21;;;;;;;6.70;2.88;;;13.40;47.80;;;;;;4097819;28;20062;-87
2022/04/26 11:15:24;;;;;;;7.50;2.70;;;13.50;48.20;;;;;;4098408;28;20023;-87
2022/04/26 11:17:26;;;;;;;5.75;2.80;;;13.50;48.40;;;;;;4104471;28;20023;-86
2022/04/26 11:19:32;;;;;;;5.32;2.50;;;13.60;48.20;;;;;;4094431;28;20381;-86
2022/04/26 11:21:33;;;;;;;8.50;2.90;;;13.60;47.80;;;;;;4095637;28;20035;-86
2022/04/26 11:28:27;;;;;;;6.90;2.95;;;13.70;46.20;;;;;;4110417;28;20467;-86
2022/04/26 11:30:30;;;;;;;8.70;3.63;;;13.70;44.80;;;;;;4094747;28;20042;-86
2022/04/26 11:32:32;;;;;;;;;;;13.60;45.50;;;;;;4094452;28;20668;-87
2022/04/26 11:34:43;;;;;;;9.10;3.33;;;13.60;45.10;;;;;;4088744;28;19921;-87
2022/04/26 11:36:44;;;;;;;5.15;2.67;;;13.50;45.30;;;;;;4095753;28;20039;-88
2022/04/26 11:38:56;;;;;;;11.38;3.58;;;13.50;45.80;;;;;;4095865;28;20059;-86
2022/04/26 11:41:02;;;;;;;8.60;3.00;;;13.50;45.40;;;;;;4103770;28;20034;-87
2022/04/26 11:43:17;;;;;;;9.63;3.35;;;13.40;46.40;;;;;;4094423;28;20514;-88
2022/04/26 11:45:18;;;;;;;6.35;3.20;;;13.40;45.70;;;;;;4109069;28;20089;-89
2022/04/26 11:47:18;;;;;;;10.63;3.03;;;13.50;46.60;;;;;;4096977;28;20079;-88
2022/04/26 11:49:37;;;;;;;11.85;3.17;;;13.40;46.20;;;;;;4092025;28;20039;-89
2022/04/26 11:51:37;;;;;;;7.55;3.10;;;13.30;45.70;;;;;;4107444;28;20026;-89
2022/04/26 11:53:39;;;;;;;9.23;2.95;;;13.30;46.00;;;;;;4093202;28;20111;-88
2022/04/26 11:55:43;;;;;;;8.00;2.60;;;13.20;46.50;;;;;;4113280;28;20344;-89
2022/04/26 11:57:46;;;;;;;5.00;2.10;;;13.30;46.90;;;;;;4093384;28;20118;-88
2022/04/26 11:59:47;;;;;;;6.70;2.88;;;13.20;46.70;;;;;;4094612;29;20028;-87
2022/04/26 12:01:52;;;;;;;8.15;2.40;;;13.30;46.90;;;;;;4092566;28;20510;-88
2022/04/26 12:03:56;;;;;;;7.28;2.55;;;13.30;47.00;;;;;;4107176;28;20030;-88
2022/04/26 12:06:03;;;;;;;9.48;2.90;;;13.30;46.10;;;;;;4110376;28;20459;-88
2022/04/26 12:08:09;;;;;;;7.15;2.50;;;13.30;46.00;;;;;;4092430;28;20452;-88
2022/04/26 12:10:25;;;;;;;6.43;2.47;;;13.40;46.20;;;;;;4092082;28;20034;-86
2022/04/26 12:12:27;;;;;;;8.57;2.75;;;13.40;46.10;;;;;;4093865;28;20042;-84
2022/04/26 12:14:27;;;;;;;10.07;2.30;;;13.40;46.40;;;;;;4091775;28;20078;-87
2022/04/26 12:16:33;;;;;;;7.18;2.30;;;13.40;46.70;;;;;;4091130;28;20027;-89
2022/04/26 12:18:47;;;;;;;7.82;2.50;;;13.40;46.50;;;;;;4106864;28;20526;-88
2022/04/26 12:20:59;;;;;;;6.72;2.88;;;13.50;46.40;;;;;;4097319;28;20594;-87
2022/04/26 12:23:00;;;;;;;6.97;2.75;;;13.50;45.10;;;;;;4099229;28;20023;-88
2022/04/26 12:25:01;;;;;;;7.18;2.60;;;13.50;45.80;;;;;;4109406;28;20026;-88
2022/04/26 12:27:04;;;;;;;7.43;2.50;;;13.60;46.20;;;;;;4095055;28;20038;-88
2022/04/26 12:29:13;;;;;;;7.50;2.65;;;13.60;45.90;;;;;;4110406;28;20479;-88
2022/04/26 12:31:43;;;;;;;6.30;2.35;;;13.60;45.40;;;;;;4091289;28;20035;-88
2022/04/26 12:33:50;;;;;;;9.30;2.15;;;13.70;44.70;;;;;;4090877;28;20047;-88
2022/04/26 12:36:17;;;;;;;4.13;2.15;;;13.70;45.00;;;;;;4107739;28;20034;-89
2022/04/26 12:38:23;;;;;;;8.48;2.70;;;13.70;44.40;;;;;;4055568;29;20070;-88
2022/04/26 12:41:01;;;;;;;10.55;2.60;;;13.90;45.30;;;;;;4036750;29;20052;-88
2022/04/26 12:43:29;;;;;;;6.57;2.47;;;13.80;44.20;;;;;;4040451;29;20024;-89
2022/04/26 12:45:35;;;;;;;10.50;2.90;;;13.80;43.90;;;;;;4042004;29;20035;-90
2022/04/26 12:50:53;;;;;;;6.88;2.45;;;13.80;44.50;;;;;;4046787;29;20572;-90
2022/04/26 12:53:38;;;;;;;5.20;2.05;;;13.80;44.10;;;;;;4046778;29;20033;-89
2022/04/26 12:55:49;;;;;;;5.90;1.88;;;13.90;44.70;;;;;;4041847;29;20030;-89
2022/04/26 12:58:26;;;;;;;5.20;1.90;;;13.90;44.50;;;;;;4046087;29;20968;-90
2022/04/26 13:00:30;;;;;;;5.97;1.75;;;13.90;43.80;;;;;;4034233;29;20128;-90
2022/04/26 13:02:39;;;;;;;10.95;2.35;;;14.00;43.60;;;;;;4062362;29;20119;-90
2022/04/26 13:04:43;;;;;;;5.75;2.20;;;14.00;44.00;;;;;;4047897;29;20028;-88
2022/04/26 13:06:44;;;;;;;8.00;1.90;;;13.90;43.90;;;;;;4059044;29;20044;-89
2022/04/26 13:09:14;;;;;;;6.05;1.73;;;14.00;43.80;;;;;;4064492;28;20130;-89
2022/04/26 13:11:26;;;;;;;5.25;1.63;;;13.90;43.20;;;;;;4083275;28;20147;-89
2022/04/26 13:13:27;;;;;;;3.72;1.77;;;14.00;43.40;;;;;;4088144;28;20093;-90
2022/04/26 13:15:31;;;;;;;5.10;1.65;;;14.00;43.30;;;;;;4104225;28;20038;-89
2022/04/26 13:17:59;;;;;;;4.07;1.75;;;14.00;43.40;;;;;;4095569;28;20114;-88
2022/04/26 13:20:01;;;;;;;5.80;1.75;;;13.90;43.80;;;;;;4108092;28;20027;-87
2022/04/26 13:22:05;;;;;;;10.25;1.83;;;13.90;43.70;;;;;;4094316;28;20027;-88
2022/04/26 13:24:32;;;;;;;7.43;2.20;;;14.00;44.20;;;;;;4110915;28;20035;-87
2022/04/26 13:26:46;;;;;;;7.60;1.77;;;14.00;44.40;;;;;;4106952;28;20046;-89
2022/04/26 13:29:16;;;;;;;7.18;1.70;;;14.00;44.30;;;;;;4099559;28;20580;-89
2022/04/26 13:37:30;;;;;;;9.38;2.28;;;14.20;44.80;;;;;;4028479;29;20156;-88
2022/04/26 13:46:46;;;;;;;;;;;;;;;;;;;;;
2022/04/26 13:53:18;;;;;;;5.82;1.60;;;14.20;43.30;;;;;;3945900;30;20051;-89
2022/04/26 13:55:37;;;;;;;7.97;2.08;;;14.20;43.90;;;;;;3899699;30;20056;-89
2022/04/26 13:57:53;;;;;;;4.35;1.90;;;14.20;42.90;;;;;;3890017;30;20041;-89
2022/04/26 14:00:04;;;;;;;4.65;1.60;;;14.10;43.20;;;;;;3896303;30;20041;-89
2022/04/26 14:02:48;;;;;;;5.32;1.98;;;14.20;43.00;;;;;;3894884;30;20083;-91
2022/04/26 14:04:55;;;;;;;6.28;1.45;;;14.20;42.40;;;;;;3885728;30;20042;-89
2022/04/26 14:07:06;;;;;;;4.80;1.52;;;14.20;42.50;;;;;;3904843;30;20108;-91
2022/04/26 14:09:15;;;;;;;4.47;1.52;;;14.20;42.60;;;;;;3909504;30;20072;-88
2022/04/26 14:12:13;;;;;;;4.88;1.50;;;14.20;42.50;;;;;;3920642;30;20096;-90
2022/04/26 14:21:48;;;;;;;8.93;2.03;;;14.50;42.00;;;;;;3991418;29;20038;-84
2022/04/26 14:23:49;;;;;;;7.35;2.08;;;14.50;42.00;;;;;;3989589;29;20345;-85
2022/04/26 14:25:50;;;;;;;6.63;1.70;;;14.50;40.90;;;;;;3996770;29;20053;-84
2022/04/26 14:27:51;;;;;;;4.57;1.88;;;14.50;40.30;;;;;;3995390;29;20087;-84
2022/04/26 14:29:52;;;;;;;7.10;1.63;;;14.50;40.30;;;;;;4056421;29;20036;-83
2022/04/26 14:31:52;;;;;;;4.18;1.40;;;14.60;40.50;;;;;;4064190;29;20050;-84
2022/04/26 14:33:53;;;;;;;4.47;1.65;;;14.60;41.10;;;;;;4108189;28;20037;-84
2022/04/26 14:35:54;;;;;;;8.32;1.92;;;14.60;40.90;;;;;;4094087;28;20495;-84
2022/04/26 14:37:54;;;;;;;7.47;1.52;;;14.60;40.40;;;;;;4093756;28;20035;-85
2022/04/26 14:39:55;;;;;;;4.38;1.60;;;14.70;40.20;;;;;;4114222;28;20027;-85
2022/04/26 14:41:56;;;;;;;11.35;1.55;;;14.70;40.30;;;;;;4092514;28;20074;-84
2022/04/26 14:43:56;;;;;;;8.73;2.00;;;14.80;40.60;;;;;;4092689;28;20031;-86
2022/04/26 14:45:57;;;;;;;8.80;2.08;;;14.70;40.30;;;;;;4091415;28;20039;-90
2022/04/26 14:47:59;;;;;;;7.05;1.80;;;14.70;40.40;;;;;;4093031;28;20050;-89
2022/04/26 14:50:02;;;;;;;5.55;1.65;;;14.70;40.70;;;;;;4089190;28;20043;-89
2022/04/26 14:52:03;;;;;;;4.95;1.85;;;14.70;39.20;;;;;;4094126;28;20130;-89
2022/04/26 14:54:04;;;;;;;5.15;1.55;;;14.70;39.50;;;;;;4109233;28;20082;-89
2022/04/26 14:56:06;;;;;;;4.45;1.60;;;14.70;40.10;;;;;;4108569;28;20034;-89
2022/04/26 14:58:09;;;;;;;7.05;1.85;;;14.60;39.50;;;;;;4108628;28;20023;-89
2022/04/26 15:00:10;;;;;;;;;;;14.60;39.50;;;;;;4102232;28;20392;-88
2022/04/26 15:02:17;;;;;;;3.10;1.60;;;14.60;39.30;;;;;;4088969;28;20009;-88
2022/04/26 15:04:19;;;;;;;3.05;1.60;;;14.50;40.20;;;;;;4096130;28;20058;-88
2022/04/26 15:06:27;;;;;;;4.10;1.55;;;14.50;40.40;;;;;;4091738;28;20035;-89
2022/04/26 15:10:50;;;;;;;3.55;1.70;;;14.40;40.40;;;;;;4101895;28;20510;-89
2022/04/26 15:17:44;;;;;;;5.85;1.75;;;14.40;40.70;;;;;;4109632;28;20367;-88
2022/04/26 15:20:07;;;;;;;5.82;1.85;;;14.30;40.80;;;;;;4104258;28;20011;-90
2022/04/26 15:22:31;;;;;;;4.68;1.67;;;14.30;40.60;;;;;;4105570;28;20444;-89